Time;durP1;ratioP1;P1;durP2;ratioP2;P2;SDS_P1;SDS_P2;PMS_P1;PMS_P2;Temp;Humidity;BMP_temperature;BMP_pressure;BME280_temperature;BME280_humidity;BME280_pressure;Samples;Min_cycle;Max_cycle;Signal;HPM_P1;HPM_P2
2021/04/11 00:01:09;;;;;;;10.93;9.83;;;;;;;11.40;70.74;99487.09;5124935;28;20477;-65
2021/04/11 00:03:35;;;;;;;18.40;11.40;;;;;;;11.48;70.53;99487.09;5125562;28;20437;-65
2021/04/11 00:06:03;;;;;;;11.17;10.07;;;;;;;11.64;70.16;99480.94;5105169;28;20470;-65
2021/04/11 00:08:29;;;;;;;12.67;9.87;;;;;;;11.41;70.62;99486.09;5119562;28;20450;-65
2021/04/11 00:10:59;;;;;;;12.07;9.03;;;;;;;11.60;69.65;99487.63;5119321;28;20471;-65
2021/04/11 00:13:26;;;;;;;11.23;9.67;;;;;;;11.72;69.47;99492.63;5122572;28;20880;-65
2021/04/11 00:15:53;;;;;;;10.13;8.90;;;;;;;11.61;69.80;99483.09;5113674;28;20577;-65
2021/04/11 00:18:19;;;;;;;10.23;8.07;;;;;;;11.53;69.80;99475.06;5125532;28;20454;-65
2021/04/11 00:20:45;;;;;;;9.13;8.17;;;;;;;11.57;69.89;99477.25;5126082;28;20474;-65
2021/04/11 00:23:13;;;;;;;10.17;8.70;;;;;;;11.36;70.72;99474.22;5125722;28;20458;-65
2021/04/11 00:25:40;;;;;;;9.30;8.40;;;;;;;11.64;69.91;99478.25;5107162;28;20497;-65
2021/04/11 00:28:07;;;;;;;9.00;8.20;;;;;;;11.56;70.26;99477.41;5120369;28;20443;-64
2021/04/11 00:30:33;;;;;;;9.23;8.23;;;;;;;11.45;70.94;99468.69;5125696;28;20488;-65
2021/04/11 00:33:01;;;;;;;11.00;9.83;;;;;;;11.28;71.27;99467.00;5125976;28;20464;-65
2021/04/11 00:35:27;;;;;;;11.30;9.17;;;;;;;11.31;71.53;99466.66;5123308;28;20482;-65
2021/04/11 00:37:54;;;;;;;9.73;8.70;;;;;;;11.12;71.99;99460.59;5114792;28;21051;-65
2021/04/11 00:40:22;;;;;;;9.50;8.63;;;;;;;11.31;71.40;99467.50;5111196;28;20469;-65
2021/04/11 00:42:52;;;;;;;11.80;8.70;;;;;;;11.25;71.33;99465.50;5125967;28;20481;-65
2021/04/11 00:45:26;;;;;;;9.60;8.73;;;;;;;11.03;72.68;99464.28;5125826;28;20454;-65
2021/04/11 00:47:53;;;;;;;9.17;8.27;;;;;;;11.22;72.30;99470.34;5115235;28;20446;-65
2021/04/11 00:50:19;;;;;;;10.30;9.30;;;;;;;11.26;72.78;99463.66;5120170;28;20518;-66
2021/04/11 00:52:46;;;;;;;9.53;8.63;;;;;;;10.99;73.20;99451.38;5126131;28;20442;-65
2021/04/11 00:55:14;;;;;;;10.60;9.23;;;;;;;11.17;72.73;99459.28;5125429;28;20478;-66
2021/04/11 00:57:41;;;;;;;9.90;8.90;;;;;;;11.00;73.36;99442.38;5126050;28;20460;-66
2021/04/11 01:00:08;;;;;;;9.23;8.33;;;;;;;11.16;72.86;99445.06;5125025;28;20459;-65
2021/04/11 01:02:37;;;;;;;9.57;8.33;;;;;;;10.98;73.86;99442.53;5125923;28;20471;-66
2021/04/11 01:05:08;;;;;;;9.80;8.80;;;;;;;10.85;73.86;99442.13;5125805;28;20474;-66
2021/04/11 01:07:34;;;;;;;9.47;8.20;;;;;;;11.36;72.73;99436.75;5106642;28;20479;-66
2021/04/11 01:10:02;;;;;;;12.03;8.90;;;;;;;11.14;72.84;99430.19;5118681;28;20526;-66
2021/04/11 01:12:28;;;;;;;14.87;9.70;;;;;;;11.27;73.18;99426.03;5122068;28;20497;-66
2021/04/11 01:14:55;;;;;;;10.90;9.17;;;;;;;11.08;73.59;99429.00;5125607;28;20442;-66
2021/04/11 01:17:21;;;;;;;10.77;9.70;;;;;;;11.33;73.18;99421.03;5123306;28;20930;-66
2021/04/11 01:19:50;;;;;;;13.30;9.50;;;;;;;11.50;72.64;99412.00;5125621;28;20457;-66
2021/04/11 01:22:23;;;;;;;12.70;10.07;;;;;;;11.57;72.38;99418.34;5124306;27;20482;-66
2021/04/11 01:24:52;;;;;;;11.83;10.73;;;;;;;11.42;72.75;99409.31;5125639;28;20513;-66
2021/04/11 01:27:21;;;;;;;12.37;10.87;;;;;;;11.33;72.95;99408.47;5124172;27;20470;-66
2021/04/11 01:29:48;;;;;;;13.10;11.60;;;;;;;11.36;73.07;99402.78;5104876;28;20455;-66
2021/04/11 01:32:15;;;;;;;13.23;11.40;;;;;;;11.23;73.63;99402.44;5121115;28;20520;-66
2021/04/11 01:34:43;;;;;;;14.17;12.23;;;;;;;11.10;73.93;99405.59;5125776;28;20442;-66
2021/04/11 01:37:11;;;;;;;14.00;12.53;;;;;;;11.26;73.25;99397.59;5124631;27;20478;-65
2021/04/11 01:39:40;;;;;;;15.47;12.90;;;;;;;11.20;73.41;99395.59;5124515;28;20488;-66
2021/04/11 01:42:07;;;;;;;15.03;12.50;;;;;;;11.22;73.60;99396.25;5124089;27;20489;-66
2021/04/11 01:44:36;;;;;;;14.03;12.50;;;;;;;11.17;73.72;99398.59;5124903;28;20461;-66
2021/04/11 01:47:03;;;;;;;13.43;11.33;;;;;;;11.22;73.50;99390.91;5124826;27;20474;-66
2021/04/11 01:49:30;;;;;;;14.00;12.27;;;;;;;11.06;73.95;99383.69;5124670;28;20476;-66
2021/04/11 01:52:01;;;;;;;17.03;14.47;;;;;;;11.29;73.56;99385.72;5124333;27;20493;-66
2021/04/11 01:54:31;;;;;;;16.80;13.87;;;;;;;11.24;73.42;99380.88;5125199;28;20426;-66
2021/04/11 01:56:57;;;;;;;14.33;12.77;;;;;;;11.21;73.76;99378.53;5123963;27;20478;-66
2021/04/11 01:59:26;;;;;;;18.43;13.77;;;;;;;11.15;73.88;99386.41;5124023;28;20482;-66
2021/04/11 02:01:52;;;;;;;14.93;13.23;;;;;;;11.24;73.64;99380.03;5114507;28;20482;-66
2021/04/11 02:04:19;;;;;;;17.07;14.53;;;;;;;11.07;74.50;99379.19;5124561;28;20475;-66
2021/04/11 02:06:48;;;;;;;19.23;13.57;;;;;;;11.10;74.18;99376.19;5109217;28;20501;-66
2021/04/11 02:09:17;;;;;;;16.33;14.10;;;;;;;11.00;74.50;99375.50;5123533;28;20508;-66
2021/04/11 02:11:43;;;;;;;19.23;16.00;;;;;;;10.90;74.66;99372.97;5123484;27;20470;-65
2021/04/11 02:14:09;;;;;;;15.77;14.10;;;;;;;10.79;74.87;99376.78;5124198;28;20912;-65
2021/04/11 02:16:37;;;;;;;16.03;14.10;;;;;;;10.82;75.00;99368.44;5123423;27;20477;-64
2021/04/11 02:19:05;;;;;;;18.30;15.17;;;;;;;10.96;74.79;99364.28;5124435;28;20540;-65
2021/04/11 02:21:31;;;;;;;18.23;14.67;;;;;;;10.97;74.55;99365.13;5123740;27;20470;-65
2021/04/11 02:23:57;;;;;;;16.93;14.23;;;;;;;10.90;74.97;99356.91;5124556;28;20481;-65
2021/04/11 02:26:24;;;;;;;16.50;14.30;;;;;;;11.04;74.52;99356.28;5123254;28;21030;-65
2021/04/11 02:28:50;;;;;;;17.47;13.23;;;;;;;10.79;75.00;99350.06;5124628;28;20744;-64
2021/04/11 02:31:19;;;;;;;15.00;13.40;;;;;;;10.99;74.75;99342.56;5123608;27;21028;-64
2021/04/11 02:34:02;;;;;;;18.00;13.73;;;;;;;10.91;75.09;99353.25;5124411;28;20445;-66
2021/04/11 02:36:34;;;;;;;16.53;14.13;;;;;;;10.83;75.26;99351.41;5123330;28;21260;-65
2021/04/11 02:39:00;;;;;;;17.60;12.90;;;;;;;10.82;74.95;99346.22;5123517;28;20473;-65
2021/04/11 02:41:27;;;;;;;13.37;12.07;;;;;;;10.86;74.54;99345.72;5123324;27;20493;-65
2021/04/11 02:43:54;;;;;;;14.23;11.37;;;;;;;10.89;74.30;99340.03;5123853;28;20441;-65
2021/04/11 02:46:21;;;;;;;16.47;10.60;;;;;;;10.94;74.04;99339.56;5123466;28;20477;-65
2021/04/11 02:48:47;;;;;;;12.60;10.73;;;;;;;10.93;74.24;99344.03;5123524;28;20484;-65
2021/04/11 02:51:14;;;;;;;14.63;11.30;;;;;;;10.95;74.27;99346.56;5123339;27;20466;-64
2021/04/11 02:53:41;;;;;;;13.03;10.40;;;;;;;11.02;74.13;99352.09;5123481;28;20469;-65
2021/04/11 02:56:08;;;;;;;12.60;9.10;;;;;;;11.15;74.06;99341.75;5122687;27;20488;-65
2021/04/11 02:58:34;;;;;;;17.57;10.30;;;;;;;11.00;74.12;99341.56;5122987;28;20867;-66
2021/04/11 03:01:03;;;;;;;14.87;10.17;;;;;;;11.04;73.84;99339.38;5123224;28;20505;-65
2021/04/11 03:03:30;;;;;;;9.63;8.63;;;;;;;11.03;73.69;99341.22;5123523;28;20837;-65
2021/04/11 03:05:57;;;;;;;12.83;8.73;;;;;;;11.04;74.01;99340.25;5122965;27;20480;-66
2021/04/11 03:08:28;;;;;;;10.03;8.63;;;;;;;10.89;74.29;99337.38;5123298;28;20512;-65
2021/04/11 03:10:59;;;;;;;13.90;9.60;;;;;;;11.03;74.06;99322.50;5122226;28;20470;-66
2021/04/11 03:13:25;;;;;;;10.13;8.90;;;;;;;11.00;74.60;99325.50;5112394;28;20493;-66
2021/04/11 03:15:55;;;;;;;9.83;8.27;;;;;;;10.95;74.64;99327.84;5123105;28;20545;-66
2021/04/11 03:18:22;;;;;;;8.97;8.07;;;;;;;11.07;74.35;99328.34;5122947;28;20473;-66
2021/04/11 03:20:49;;;;;;;10.53;9.37;;;;;;;11.14;74.26;99317.84;5122592;28;20493;-66
2021/04/11 03:23:17;;;;;;;9.53;8.57;;;;;;;11.09;74.27;99321.84;5123383;28;20454;-66
2021/04/11 03:25:44;;;;;;;9.23;8.07;;;;;;;11.18;74.31;99329.84;5122663;27;20524;-66
2021/04/11 03:28:13;;;;;;;10.40;9.30;;;;;;;11.20;74.42;99334.06;5122842;28;20473;-66
2021/04/11 03:30:42;;;;;;;10.07;9.07;;;;;;;11.24;74.16;99322.00;5122329;27;20504;-65
2021/04/11 03:33:11;;;;;;;11.40;8.70;;;;;;;10.93;74.93;99319.97;5123250;28;20490;-65
2021/04/11 03:35:39;;;;;;;10.40;9.37;;;;;;;11.11;74.84;99316.34;5122447;27;20499;-66
2021/04/11 03:38:07;;;;;;;11.40;9.60;;;;;;;11.10;74.83;99320.84;5122796;28;20462;-65
2021/04/11 03:40:35;;;;;;;13.13;8.80;;;;;;;11.04;74.94;99320.66;5122558;27;20478;-66
2021/04/11 03:43:07;;;;;;;11.97;8.77;;;;;;;11.17;74.88;99312.97;5123120;28;20434;-66
2021/04/11 03:45:34;;;;;;;10.37;8.40;;;;;;;11.11;74.88;99317.16;5122801;27;20462;-66
2021/04/11 03:48:05;;;;;;;12.90;8.43;;;;;;;11.16;74.92;99324.66;5123056;28;20442;-65
2021/04/11 03:50:36;;;;;;;10.67;8.97;;;;;;;10.91;75.42;99313.97;5122845;27;20469;-65
2021/04/11 03:53:04;;;;;;;10.13;8.90;;;;;;;10.97;75.00;99311.63;5123274;28;20895;-65
2021/04/11 03:55:36;;;;;;;11.30;9.10;;;;;;;10.86;75.34;99305.59;5122154;27;20490;-65
2021/04/11 03:58:06;;;;;;;8.50;7.60;;;;;;;10.87;75.28;99301.94;5122607;28;20483;-65
2021/04/11 04:00:35;;;;;;;12.20;9.40;;;;;;;11.32;74.43;99310.47;5122595;27;20461;-66
2021/04/11 04:03:07;;;;;;;8.97;7.60;;;;;;;11.51;73.58;99306.59;5123194;28;20466;-66
2021/04/11 04:05:35;;;;;;;10.03;8.27;;;;;;;11.35;73.93;99312.78;5122365;28;20491;-66
2021/04/11 04:08:01;;;;;;;9.27;8.37;;;;;;;11.49;73.67;99309.44;5120121;28;20470;-65
2021/04/11 04:10:31;;;;;;;9.10;8.17;;;;;;;11.60;73.00;99312.78;5121801;27;20466;-66
2021/04/11 04:13:08;;;;;;;9.80;8.10;;;;;;;11.53;73.23;99320.66;5121827;28;20468;-65
2021/04/11 04:15:58;;;;;;;10.80;7.10;;;;;;;11.69;72.92;99325.97;5122099;28;20473;-66
2021/04/11 04:18:44;;;;;;;15.00;7.73;;;;;;;11.56;72.89;99322.13;5122408;28;20457;-65
2021/04/11 04:21:21;;;;;;;7.40;6.70;;;;;;;11.43;73.25;99330.69;5121933;28;20994;-66
2021/04/11 04:23:53;;;;;;;10.37;7.83;;;;;;;11.64;72.56;99331.00;5121334;28;20520;-66
2021/04/11 04:26:36;;;;;;;8.77;7.20;;;;;;;11.64;72.47;99331.00;5121946;27;20486;-66
2021/04/11 04:29:14;;;;;;;8.13;7.30;;;;;;;11.54;73.00;99334.88;5121679;28;20469;-66
2021/04/11 04:31:51;;;;;;;7.83;6.93;;;;;;;11.71;72.88;99335.69;5121527;27;20505;-66
2021/04/11 04:34:26;;;;;;;9.60;7.17;;;;;;;11.26;74.20;99332.53;5122470;28;20442;-66
2021/04/11 04:37:01;;;;;;;10.57;7.90;;;;;;;11.40;73.85;99325.69;5122447;28;20551;-66
2021/04/11 04:39:32;;;;;;;8.93;7.60;;;;;;;11.21;74.46;99330.34;5121705;28;20453;-66
2021/04/11 04:42:08;;;;;;;7.40;6.70;;;;;;;11.35;74.13;99331.53;5121891;28;20474;-66
2021/04/11 04:44:43;;;;;;;8.47;7.03;;;;;;;11.29;74.32;99335.72;5124965;28;20485;-66
2021/04/11 04:47:12;;;;;;;8.70;7.53;;;;;;;11.31;74.29;99339.06;5125579;28;20473;-66
2021/04/11 04:49:43;;;;;;;9.63;6.93;;;;;;;11.55;73.64;99339.22;5124424;28;20505;-66
2021/04/11 04:52:12;;;;;;;8.60;7.10;;;;;;;11.26;74.50;99328.03;5125741;27;20501;-66
2021/04/11 04:54:42;;;;;;;8.20;7.17;;;;;;;11.09;75.03;99327.19;5125408;28;20473;-66
2021/04/11 04:57:11;;;;;;;8.10;6.00;;;;;;;11.19;74.59;99327.03;5110570;27;20547;-66
2021/04/11 04:59:42;;;;;;;6.60;5.73;;;;;;;11.29;74.10;99325.00;5124862;28;20442;-66
2021/04/11 05:02:11;;;;;;;7.43;6.47;;;;;;;11.50;73.65;99323.66;5125375;28;20477;-65
2021/04/11 05:04:39;;;;;;;7.67;6.47;;;;;;;11.25;74.87;99328.22;5125439;28;20450;-65
2021/04/11 05:07:08;;;;;;;7.63;6.40;;;;;;;11.39;74.07;99332.06;5125233;27;20490;-66
2021/04/11 05:09:38;;;;;;;6.73;6.00;;;;;;;11.52;73.53;99334.19;5124420;28;20945;-66
2021/04/11 05:12:09;;;;;;;11.73;6.40;;;;;;;11.42;73.83;99339.72;5125351;28;21071;-66
2021/04/11 05:14:38;;;;;;;6.77;5.20;;;;;;;11.52;73.40;99337.72;5125636;28;20465;-65
2021/04/11 05:17:06;;;;;;;5.87;5.37;;;;;;;11.36;73.88;99345.75;5125094;27;20569;-66
2021/04/11 05:19:34;;;;;;;5.80;5.30;;;;;;;11.36;73.52;99349.25;5124774;28;20450;-66
2021/04/11 05:22:03;;;;;;;6.90;5.40;;;;;;;11.49;73.63;99344.25;5125303;28;20505;-66
2021/04/11 05:24:35;;;;;;;5.93;5.33;;;;;;;11.39;74.51;99354.28;5125366;28;20506;-66
2021/04/11 05:27:05;;;;;;;7.07;6.37;;;;;;;11.42;74.67;99355.78;5108702;27;20498;-65
2021/04/11 05:29:34;;;;;;;7.27;6.57;;;;;;;11.25;75.16;99355.78;5122176;28;20482;-68
2021/04/11 05:32:01;;;;;;;7.00;6.30;;;;;;;11.26;75.66;99348.59;5124637;27;20523;-66
2021/04/11 05:34:29;;;;;;;8.83;7.27;;;;;;;11.47;75.01;99350.75;5125539;28;20498;-68
2021/04/11 05:37:00;;;;;;;10.27;8.70;;;;;;;11.23;76.18;99355.13;5114718;27;20478;-67
2021/04/11 05:39:33;;;;;;;8.57;7.50;;;;;;;11.48;75.49;99360.47;5117771;28;20843;-69
2021/04/11 05:42:04;;;;;;;8.50;7.60;;;;;;;11.66;74.66;99365.63;5111531;27;20478;-68
2021/04/11 05:44:35;;;;;;;9.10;8.20;;;;;;;11.84;73.99;99368.13;5123012;28;20450;-68
2021/04/11 05:47:09;;;;;;;11.17;9.40;;;;;;;12.05;73.20;99375.66;5123923;27;20509;-68
2021/04/11 05:49:39;;;;;;;10.03;8.97;;;;;;;12.34;72.08;99371.50;5117707;28;20454;-67
2021/04/11 05:52:09;;;;;;;10.20;9.20;;;;;;;12.67;70.90;99374.88;5105467;28;20475;-67
2021/04/11 05:54:39;;;;;;;9.70;8.80;;;;;;;12.68;70.65;99375.72;5113354;28;20485;-67
2021/04/11 05:57:08;;;;;;;11.20;10.20;;;;;;;12.85;69.61;99384.53;5124409;27;20501;-68
2021/04/11 05:59:38;;;;;;;11.70;10.00;;;;;;;12.60;70.57;99384.63;5124201;28;20460;-68
2021/04/11 06:02:06;;;;;;;10.80;9.77;;;;;;;12.88;69.64;99392.19;5123945;28;20546;-70
2021/04/11 06:04:40;;;;;;;11.30;9.70;;;;;;;12.81;69.82;99390.25;5123176;28;20454;-67
2021/04/11 06:07:09;;;;;;;14.63;9.90;;;;;;;13.12;68.91;99389.38;5105242;28;20478;-67
2021/04/11 06:09:37;;;;;;;11.20;10.20;;;;;;;12.81;69.81;99398.28;5123882;28;21120;-68
2021/04/11 06:12:06;;;;;;;10.50;9.50;;;;;;;12.66;69.66;99400.03;5122554;27;20506;-69
2021/04/11 06:14:35;;;;;;;10.47;9.47;;;;;;;12.74;69.13;99409.88;5124750;28;20481;-66
2021/04/11 06:17:06;;;;;;;9.77;8.67;;;;;;;12.56;69.02;99418.19;5123635;28;20486;-66
2021/04/11 06:19:32;;;;;;;9.23;8.17;;;;;;;12.47;68.78;99413.88;5124071;28;20450;-66
2021/04/11 06:22:03;;;;;;;10.03;8.10;;;;;;;12.73;67.91;99419.78;5121122;28;20511;-68
2021/04/11 06:24:46;;;;;;;8.23;7.43;;;;;;;12.89;66.93;99421.53;5124024;28;20478;-68
2021/04/11 06:27:23;;;;;;;8.07;7.27;;;;;;;12.90;66.75;99417.03;5123326;27;20482;-68
2021/04/11 06:29:56;;;;;;;10.10;7.40;;;;;;;13.05;66.47;99417.91;5119807;28;20461;-68
2021/04/11 06:32:23;;;;;;;7.90;7.07;;;;;;;12.98;65.48;99416.97;5123114;27;20531;-67
2021/04/11 06:34:53;;;;;;;6.90;6.30;;;;;;;12.73;66.56;99419.78;5121172;28;20482;-67
2021/04/11 06:37:21;;;;;;;6.43;5.83;;;;;;;12.62;67.31;99430.91;5118048;28;20474;-66
2021/04/11 06:39:49;;;;;;;7.07;6.43;;;;;;;12.87;65.75;99426.25;5110156;28;20952;-68
2021/04/11 06:42:46;;;;;;;6.87;6.27;;;;;;;13.27;65.10;99432.38;5105815;28;20513;-68
2021/04/11 06:45:19;;;;;;;7.30;6.60;;;;;;;13.08;64.95;99431.00;5102848;28;20467;-68
2021/04/11 06:48:25;;;;;;;6.60;5.90;;;;;;;13.24;64.55;99445.31;5114855;28;20528;-67
2021/04/11 06:51:21;;;;;;;6.47;5.80;;;;;;;12.99;65.19;99448.97;5122745;28;20549;-67
2021/04/11 06:53:58;;;;;;;5.70;5.20;;;;;;;12.33;67.01;99447.59;5122822;28;20450;-68
2021/04/11 06:56:36;;;;;;;5.40;4.83;;;;;;;12.24;67.34;99454.81;5119706;27;20497;-67
2021/04/11 06:59:12;;;;;;;6.43;5.70;;;;;;;12.03;67.82;99456.19;5116605;28;20474;-70
2021/04/11 07:02:03;;;;;;;6.20;5.60;;;;;;;12.11;67.84;99460.69;5111900;28;20501;-65
2021/04/11 07:05:00;;;;;;;7.33;6.57;;;;;;;12.18;67.79;99460.84;5118735;28;20485;-67
2021/04/11 07:08:14;;;;;;;6.70;6.10;;;;;;;12.30;67.58;99474.72;5122698;27;20847;-67
2021/04/11 07:10:51;;;;;;;7.57;6.80;;;;;;;12.16;67.50;99482.44;5108935;27;20894;-71
2021/04/11 07:13:50;;;;;;;6.80;6.00;;;;;;;12.34;66.76;99476.91;5122285;28;20467;-71
2021/04/11 07:16:44;;;;;;;6.10;5.50;;;;;;;12.10;66.83;99472.44;5109170;28;20481;-68
2021/04/11 07:19:46;;;;;;;5.97;5.47;;;;;;;11.68;68.05;99476.94;5080289;28;20978;-67
2021/04/11 07:22:50;;;;;;;5.53;5.03;;;;;;;11.51;67.59;99488.63;5017115;28;20482;-69
2021/04/11 07:25:30;;;;;;;6.20;5.10;;;;;;;11.77;67.39;99493.84;5017584;28;20482;-70
2021/04/11 07:28:15;;;;;;;6.27;5.60;;;;;;;11.25;68.35;99483.41;5016477;28;20508;-70
2021/04/11 07:30:47;;;;;;;6.50;5.90;;;;;;;11.13;69.47;99488.22;5014502;28;20631;-67
2021/04/11 07:34:07;;;;;;;6.00;5.43;;;;;;;11.02;69.57;99508.06;4998194;28;20514;-67
2021/04/11 07:36:45;;;;;;;6.00;5.40;;;;;;;10.90;68.82;99504.84;4972942;28;20503;-69
2021/04/11 07:39:44;;;;;;;5.13;4.63;;;;;;;10.87;67.77;99507.00;4968245;28;20495;-67
2021/04/11 07:42:22;;;;;;;5.63;5.03;;;;;;;10.89;67.54;99500.50;4960666;28;20489;-68
2021/04/11 07:45:08;;;;;;;5.57;5.07;;;;;;;10.90;67.44;99509.34;4967973;28;20500;-69
2021/04/11 07:47:52;;;;;;;4.93;4.47;;;;;;;10.89;66.89;99524.56;4988379;28;20633;-69
2021/04/11 07:50:40;;;;;;;4.97;4.47;;;;;;;10.79;67.28;99525.69;4993626;28;20502;-69
2021/04/11 07:53:24;;;;;;;4.40;4.00;;;;;;;10.33;67.69;99539.31;4997288;28;20459;-69
2021/04/11 07:55:59;;;;;;;3.73;3.43;;;;;;;10.33;68.03;99526.78;4972383;28;20489;-67
2021/04/11 07:58:37;;;;;;;4.63;3.50;;;;;;;10.21;67.32;99540.50;5024183;28;20459;-66
2021/04/11 08:01:18;;;;;;;3.47;3.17;;;;;;;10.35;66.59;99558.69;5056890;28;20559;-66
2021/04/11 08:04:07;;;;;;;4.63;4.23;;;;;;;10.15;67.41;99566.81;5057871;28;20507;-67
2021/04/11 08:06:56;;;;;;;4.20;3.77;;;;;;;9.81;67.36;99558.72;5068496;28;20479;-66
2021/04/11 08:09:31;;;;;;;3.87;3.47;;;;;;;10.32;66.42;99561.66;5097536;28;20956;-67
2021/04/11 08:12:15;;;;;;;4.27;3.60;;;;;;;9.76;67.37;99571.69;5100646;28;20485;-67
2021/04/11 08:14:52;;;;;;;5.10;4.60;;;;;;;9.73;67.54;99580.81;5101586;28;20469;-67
2021/04/11 08:17:45;;;;;;;4.00;3.60;;;;;;;9.95;67.67;99590.22;5101453;28;20502;-67
2021/04/11 08:20:21;;;;;;;4.80;4.40;;;;;;;10.09;66.71;99588.81;5084622;28;20468;-66
2021/04/11 08:23:00;;;;;;;4.73;4.23;;;;;;;10.09;66.95;99599.50;5102224;28;20843;-68
2021/04/11 08:25:30;;;;;;;6.70;5.33;;;;;;;9.97;66.08;99598.06;5090150;28;20501;-67
2021/04/11 08:28:38;;;;;;;6.53;5.93;;;;;;;10.06;66.11;99604.31;5102941;28;20521;-65
2021/04/11 08:31:16;;;;;;;5.53;4.93;;;;;;;9.75;67.61;99596.69;5021187;28;20514;-66
2021/04/11 08:34:06;;;;;;;7.07;6.03;;;;;;;10.02;66.03;99593.09;5035307;28;20448;-65
2021/04/11 08:36:43;;;;;;;6.43;5.83;;;;;;;10.17;65.60;99610.28;5039864;28;20481;-65
2021/04/11 08:39:37;;;;;;;7.67;6.90;;;;;;;10.49;65.10;99605.38;5040806;28;20488;-65
2021/04/11 08:42:12;;;;;;;6.50;5.90;;;;;;;10.01;65.32;99622.63;5030648;28;20488;-65
2021/04/11 08:45:14;;;;;;;6.97;6.17;;;;;;;9.80;66.17;99637.09;5040117;28;20485;-66
2021/04/11 08:47:47;;;;;;;7.53;6.80;;;;;;;9.57;66.40;99648.22;4940398;29;20470;-72
2021/04/11 08:50:20;;;;;;;7.50;6.80;;;;;;;9.33;67.07;99643.41;4942650;29;20452;-75
2021/04/11 08:52:58;;;;;;;6.77;6.07;;;;;;;9.59;65.70;99654.22;4939642;29;20843;-69
2021/04/11 08:55:28;;;;;;;6.20;5.60;;;;;;;9.03;65.95;99647.19;4941680;29;20611;-68
2021/04/11 08:58:07;;;;;;;9.30;5.90;;;;;;;9.64;64.93;99648.44;4930301;29;20528;-66
2021/04/11 09:00:41;;;;;;;6.87;6.27;;;;;;;9.81;63.96;99657.50;4936870;29;20508;-69
2021/04/11 09:03:32;;;;;;;6.50;5.90;;;;;;;9.83;63.56;99662.69;4941518;29;20456;-67
2021/04/11 09:06:05;;;;;;;6.83;6.20;;;;;;;9.16;65.25;99668.19;4941327;29;20514;-69
2021/04/11 09:08:33;;;;;;;7.90;7.10;;;;;;;9.58;64.66;99665.91;5002998;28;20572;-73
2021/04/11 09:11:20;;;;;;;7.20;6.33;;;;;;;9.31;66.07;99672.06;5023090;28;20539;-77
2021/04/11 09:13:59;;;;;;;7.30;6.33;;;;;;;9.41;64.94;99686.22;5017373;28;20447;-78
2021/04/11 09:16:32;;;;;;;7.80;7.10;;;;;;;8.88;65.22;99683.28;5017919;28;20946;-74
2021/04/11 09:19:06;;;;;;;8.33;7.53;;;;;;;9.00;65.92;99682.97;5005850;28;20458;-73
2021/04/11 09:21:50;;;;;;;9.07;7.13;;;;;;;9.21;65.22;99677.44;5029160;28;20517;-70
2021/04/11 09:24:19;;;;;;;8.87;7.97;;;;;;;9.35;65.08;99684.09;5105755;28;20474;-70
2021/04/11 09:27:24;;;;;;;10.03;8.90;;;;;;;9.39;65.32;99682.84;5123648;27;20499;-72
2021/04/11 09:29:56;;;;;;;9.70;8.30;;;;;;;9.54;64.92;99682.34;5120219;28;20461;-69
2021/04/11 09:32:52;;;;;;;8.43;7.60;;;;;;;9.46;64.16;99683.09;5120941;27;20485;-66
2021/04/11 09:35:26;;;;;;;10.23;8.60;;;;;;;9.68;63.87;99689.03;5112170;27;20441;-69
2021/04/11 09:38:24;;;;;;;10.60;7.73;;;;;;;9.67;64.37;99701.53;5121590;28;20478;-69
2021/04/11 09:41:17;;;;;;;11.40;8.43;;;;;;;9.32;64.57;99702.25;5120422;27;21084;-70
2021/04/11 09:44:02;;;;;;;8.53;7.70;;;;;;;9.08;65.27;99711.59;5104837;28;20483;-68
2021/04/11 09:46:46;;;;;;;11.50;8.00;;;;;;;8.98;65.58;99721.44;5121654;27;20469;-71
2021/04/11 09:49:33;;;;;;;9.27;8.27;;;;;;;9.36;64.76;99725.00;5136126;27;20446;-71
2021/04/11 09:52:26;;;;;;;10.40;9.30;;;;;;;8.84;65.40;99723.56;5113548;27;20472;-73
2021/04/11 09:54:59;;;;;;;10.03;8.53;;;;;;;8.81;65.89;99734.50;5106834;27;20464;-72
2021/04/11 09:57:42;;;;;;;10.43;9.40;;;;;;;8.97;65.24;99733.06;5127489;27;20477;-74
2021/04/11 10:00:24;;;;;;;10.13;8.90;;;;;;;8.79;65.26;99743.63;5114801;28;20442;-67
2021/04/11 10:03:24;;;;;;;9.90;8.73;;;;;;;9.27;64.41;99741.84;5111556;28;21059;-66
2021/04/11 10:05:58;;;;;;;9.40;8.33;;;;;;;9.01;64.89;99751.31;5121460;27;20470;-67
2021/04/11 10:08:40;;;;;;;11.10;9.57;;;;;;;8.37;66.26;99741.22;5137986;27;20452;-73
2021/04/11 10:11:19;;;;;;;10.40;9.10;;;;;;;8.51;66.16;99742.66;5118031;27;20470;-74
2021/04/11 10:14:00;;;;;;;10.10;8.60;;;;;;;8.75;65.62;99748.41;5121649;28;20454;-76
2021/04/11 10:16:29;;;;;;;10.30;8.53;;;;;;;8.59;65.38;99754.31;5119709;27;20494;-70
2021/04/11 10:19:13;;;;;;;8.70;7.73;;;;;;;8.49;65.47;99758.78;5120175;28;20862;-68
2021/04/11 10:21:47;;;;;;;8.03;7.10;;;;;;;8.68;65.12;99757.94;5111052;28;20482;-76
2021/04/11 10:24:26;;;;;;;10.37;7.50;;;;;;;8.82;64.83;99759.34;5121962;28;20473;-71
2021/04/11 10:27:00;;;;;;;7.50;6.70;;;;;;;8.96;64.27;99758.06;5121010;27;20481;-72
2021/04/11 10:29:28;;;;;;;11.50;7.67;;;;;;;8.74;64.74;99751.22;5121573;28;20453;-77
2021/04/11 10:31:58;;;;;;;7.07;6.37;;;;;;;8.62;65.35;99766.50;5121571;27;20481;-74
2021/04/11 10:34:32;;;;;;;8.17;7.27;;;;;;;9.03;64.74;99770.69;5122148;28;20457;-76
2021/04/11 10:37:07;;;;;;;7.87;7.07;;;;;;;9.16;63.57;99777.53;5119832;27;20521;-76
2021/04/11 10:39:44;;;;;;;8.93;6.97;;;;;;;9.21;63.22;99783.28;5120703;28;20453;-77
2021/04/11 10:42:23;;;;;;;9.10;7.20;;;;;;;9.43;62.89;99785.63;5120646;27;20516;-80
2021/04/11 10:45:01;;;;;;;10.27;8.40;;;;;;;9.27;63.14;99787.19;5121477;27;21099;-77
2021/04/11 10:48:06;;;;;;;6.23;5.60;;;;;;;9.18;63.61;99794.22;5121007;27;20489;-70
2021/04/11 10:50:36;;;;;;;7.73;6.93;;;;;;;8.92;63.45;99791.31;5132016;27;20461;-75
2021/04/11 10:53:19;;;;;;;6.90;6.20;;;;;;;8.94;63.48;99795.53;5115014;28;20972;-72
2021/04/11 10:56:04;;;;;;;7.17;6.37;;;;;;;8.93;63.69;99785.00;5121087;27;20462;-72
2021/04/11 10:58:54;;;;;;;7.80;7.00;;;;;;;8.75;64.27;99799.03;5118900;27;20922;-72
2021/04/11 11:01:49;;;;;;;6.70;6.10;;;;;;;8.32;65.78;99802.88;5128088;27;20509;-68
2021/04/11 11:04:42;;;;;;;7.07;6.37;;;;;;;8.85;63.56;99809.69;5132282;27;20723;-69
2021/04/11 11:07:30;;;;;;;6.53;5.40;;;;;;;8.76;64.36;99807.88;5106069;28;20779;-70
2021/04/11 11:10:07;;;;;;;8.03;6.80;;;;;;;8.92;63.20;99805.47;5128050;27;20470;-69
2021/04/11 11:12:45;;;;;;;6.33;5.33;;;;;;;8.89;63.68;99811.13;5120379;27;20480;-70
2021/04/11 11:15:22;;;;;;;10.73;7.03;;;;;;;8.86;63.73;99817.56;5120056;27;20442;-71
2021/04/11 11:18:05;;;;;;;8.80;6.80;;;;;;;8.76;63.09;99821.19;5119880;28;21009;-74
2021/04/11 11:20:37;;;;;;;5.97;5.23;;;;;;;8.60;64.45;99819.91;5119600;27;20473;-73
2021/04/11 11:23:29;;;;;;;5.50;5.00;;;;;;;8.76;64.15;99826.53;5109663;28;20510;-74
2021/04/11 11:26:06;;;;;;;7.20;5.73;;;;;;;8.58;64.78;99834.38;5102360;27;20547;-73
2021/04/11 11:28:43;;;;;;;5.60;4.70;;;;;;;8.53;64.91;99829.44;5118440;28;20548;-74
2021/04/11 11:31:20;;;;;;;6.27;5.30;;;;;;;8.46;64.29;99836.31;5121191;27;20469;-77
2021/04/11 11:33:54;;;;;;;6.60;5.90;;;;;;;8.45;64.28;99837.28;5119741;28;20973;-74
2021/04/11 11:36:31;;;;;;;6.57;5.73;;;;;;;8.91;63.81;99846.47;5124434;27;20468;-75
2021/04/11 11:39:06;;;;;;;6.60;5.80;;;;;;;8.54;64.38;99849.81;5118173;28;20449;-73
2021/04/11 11:41:41;;;;;;;6.23;5.30;;;;;;;8.74;63.88;99857.81;5120730;27;20470;-75
2021/04/11 11:44:11;;;;;;;6.87;6.10;;;;;;;8.60;63.18;99854.56;5120739;28;20445;-73
2021/04/11 11:46:42;;;;;;;5.70;5.00;;;;;;;8.78;63.46;99861.88;5119296;27;20507;-75
2021/04/11 11:49:15;;;;;;;5.97;5.10;;;;;;;8.92;62.45;99868.63;5119895;28;20446;-75
2021/04/11 11:51:48;;;;;;;4.43;4.03;;;;;;;8.43;62.87;99872.03;5120048;27;20466;-76
2021/04/11 11:54:20;;;;;;;3.23;2.93;;;;;;;8.48;62.31;99879.63;5132597;27;21040;-79
2021/04/11 11:56:56;;;;;;;3.03;2.70;;;;;;;8.54;62.17;99878.25;5121467;27;20502;-79
2021/04/11 11:59:25;;;;;;;2.57;2.20;;;;;;;8.27;63.24;99888.50;5118141;28;20506;-80
2021/04/11 12:01:54;;;;;;;2.97;2.43;;;;;;;8.18;63.52;99889.31;5122890;27;20477;-77
2021/04/11 12:04:34;;;;;;;2.60;2.23;;;;;;;8.05;63.20;99891.38;5134006;27;20458;-78
2021/04/11 12:07:04;;;;;;;2.20;2.00;;;;;;;7.79;63.53;99893.63;5111535;27;20551;-76